sensor_id;sensor_type;location;lat;lon;timestamp;P1;durP1;ratioP1;P2;durP2;ratioP2
69856;SDS011;57147;53.582;10.112;2023-05-10T00:01:40;3.47;;;2.80;;
69856;SDS011;57147;53.582;10.112;2023-05-10T00:06:43;4.47;;;2.40;;
69856;SDS011;57147;53.582;10.112;2023-05-10T00:11:44;4.05;;;2.90;;
69856;SDS011;57147;53.582;10.112;2023-05-10T00:16:45;7.05;;;2.55;;
69856;SDS011;57147;53.582;10.112;2023-05-10T00:21:48;4.07;;;2.08;;
69856;SDS011;57147;53.582;10.112;2023-05-10T00:26:48;4.18;;;2.13;;
69856;SDS011;57147;53.582;10.112;2023-05-10T00:31:49;4.97;;;1.98;;
69856;SDS011;57147;53.582;10.112;2023-05-10T00:36:52;6.18;;;2.75;;
69856;SDS011;57147;53.582;10.112;2023-05-10T00:41:53;3.65;;;2.30;;
69856;SDS011;57147;53.582;10.112;2023-05-10T00:46:53;4.45;;;3.22;;
69856;SDS011;57147;53.582;10.112;2023-05-10T00:51:57;4.97;;;3.03;;
69856;SDS011;57147;53.582;10.112;2023-05-10T00:56:58;4.20;;;2.35;;
69856;SDS011;57147;53.582;10.112;2023-05-10T01:01:58;5.13;;;2.53;;
69856;SDS011;57147;53.582;10.112;2023-05-10T01:07:02;4.97;;;2.28;;
69856;SDS011;57147;53.582;10.112;2023-05-10T01:12:03;3.50;;;2.17;;
69856;SDS011;57147;53.582;10.112;2023-05-10T01:17:04;4.35;;;2.92;;
69856;SDS011;57147;53.582;10.112;2023-05-10T01:22:11;4.30;;;1.80;;
69856;SDS011;57147;53.582;10.112;2023-05-10T01:33:10;3.10;;;2.20;;
69856;SDS011;57147;53.582;10.112;2023-05-10T01:38:16;3.25;;;2.08;;
69856;SDS011;57147;53.582;10.112;2023-05-10T01:48:25;2.97;;;2.00;;
69856;SDS011;57147;53.582;10.112;2023-05-10T01:53:28;8.38;;;5.22;;
69856;SDS011;57147;53.582;10.112;2023-05-10T01:58:30;8.60;;;5.82;;
69856;SDS011;57147;53.582;10.112;2023-05-10T02:03:35;4.90;;;2.95;;
69856;SDS011;57147;53.582;10.112;2023-05-10T02:08:38;3.28;;;2.78;;
69856;SDS011;57147;53.582;10.112;2023-05-10T02:13:41;4.43;;;2.92;;
69856;SDS011;57147;53.582;10.112;2023-05-10T02:18:45;5.70;;;4.70;;
69856;SDS011;57147;53.582;10.112;2023-05-10T02:23:48;6.90;;;4.00;;
69856;SDS011;57147;53.582;10.112;2023-05-10T02:28:52;3.45;;;2.42;;
69856;SDS011;57147;53.582;10.112;2023-05-10T02:33:55;4.88;;;2.47;;
69856;SDS011;57147;53.582;10.112;2023-05-10T02:38:57;4.47;;;2.10;;
69856;SDS011;57147;53.582;10.112;2023-05-10T02:44:01;4.20;;;2.40;;
69856;SDS011;57147;53.582;10.112;2023-05-10T02:49:05;3.72;;;2.22;;
69856;SDS011;57147;53.582;10.112;2023-05-10T02:54:07;6.13;;;2.42;;
69856;SDS011;57147;53.582;10.112;2023-05-10T02:59:10;6.35;;;2.88;;
69856;SDS011;57147;53.582;10.112;2023-05-10T03:04:14;4.55;;;2.20;;
69856;SDS011;57147;53.582;10.112;2023-05-10T03:09:14;4.70;;;2.90;;
69856;SDS011;57147;53.582;10.112;2023-05-10T03:14:20;4.32;;;2.67;;
69856;SDS011;57147;53.582;10.112;2023-05-10T03:19:30;4.70;;;2.60;;
69856;SDS011;57147;53.582;10.112;2023-05-10T03:24:34;3.92;;;2.67;;
69856;SDS011;57147;53.582;10.112;2023-05-10T03:29:36;5.40;;;2.97;;
69856;SDS011;57147;53.582;10.112;2023-05-10T03:34:43;3.13;;;2.10;;
69856;SDS011;57147;53.582;10.112;2023-05-10T03:39:44;4.78;;;3.20;;
69856;SDS011;57147;53.582;10.112;2023-05-10T03:44:44;3.72;;;2.47;;
69856;SDS011;57147;53.582;10.112;2023-05-10T03:49:48;4.13;;;2.53;;
69856;SDS011;57147;53.582;10.112;2023-05-10T03:54:48;9.27;;;5.25;;
69856;SDS011;57147;53.582;10.112;2023-05-10T03:59:49;6.93;;;4.55;;
69856;SDS011;57147;53.582;10.112;2023-05-10T04:04:52;8.25;;;3.28;;
69856;SDS011;57147;53.582;10.112;2023-05-10T04:09:52;5.40;;;3.33;;
69856;SDS011;57147;53.582;10.112;2023-05-10T04:14:53;4.28;;;2.15;;
69856;SDS011;57147;53.582;10.112;2023-05-10T04:19:56;3.97;;;2.97;;
69856;SDS011;57147;53.582;10.112;2023-05-10T04:24:57;3.95;;;2.67;;
69856;SDS011;57147;53.582;10.112;2023-05-10T04:29:58;5.80;;;2.75;;
69856;SDS011;57147;53.582;10.112;2023-05-10T04:35:01;4.57;;;3.05;;
69856;SDS011;57147;53.582;10.112;2023-05-10T04:40:02;3.85;;;2.72;;
69856;SDS011;57147;53.582;10.112;2023-05-10T04:45:03;4.45;;;2.50;;
69856;SDS011;57147;53.582;10.112;2023-05-10T04:50:07;3.53;;;2.20;;
69856;SDS011;57147;53.582;10.112;2023-05-10T04:55:08;4.13;;;2.25;;
69856;SDS011;57147;53.582;10.112;2023-05-10T05:00:09;5.45;;;3.08;;
69856;SDS011;57147;53.582;10.112;2023-05-10T05:05:13;4.32;;;3.03;;
69856;SDS011;57147;53.582;10.112;2023-05-10T05:10:14;4.85;;;2.92;;
69856;SDS011;57147;53.582;10.112;2023-05-10T05:15:15;5.65;;;3.38;;
69856;SDS011;57147;53.582;10.112;2023-05-10T05:20:18;5.72;;;4.00;;
69856;SDS011;57147;53.582;10.112;2023-05-10T05:25:19;4.35;;;2.78;;
69856;SDS011;57147;53.582;10.112;2023-05-10T05:30:19;4.72;;;3.38;;
69856;SDS011;57147;53.582;10.112;2023-05-10T05:35:23;3.88;;;2.47;;
69856;SDS011;57147;53.582;10.112;2023-05-10T05:40:24;6.22;;;2.78;;
69856;SDS011;57147;53.582;10.112;2023-05-10T05:45:24;4.70;;;2.50;;
69856;SDS011;57147;53.582;10.112;2023-05-10T05:50:27;4.78;;;2.30;;
69856;SDS011;57147;53.582;10.112;2023-05-10T05:55:28;6.05;;;2.90;;
69856;SDS011;57147;53.582;10.112;2023-05-10T06:00:29;4.55;;;2.55;;
69856;SDS011;57147;53.582;10.112;2023-05-10T06:05:32;4.35;;;3.33;;
69856;SDS011;57147;53.582;10.112;2023-05-10T06:10:32;4.07;;;2.83;;
69856;SDS011;57147;53.582;10.112;2023-05-10T06:15:33;6.35;;;2.97;;
69856;SDS011;57147;53.582;10.112;2023-05-10T06:20:36;4.78;;;2.80;;
69856;SDS011;57147;53.582;10.112;2023-05-10T06:25:37;5.25;;;2.80;;
69856;SDS011;57147;53.582;10.112;2023-05-10T06:30:37;5.57;;;3.13;;
69856;SDS011;57147;53.582;10.112;2023-05-10T06:35:40;6.13;;;3.90;;
69856;SDS011;57147;53.582;10.112;2023-05-10T06:40:41;4.60;;;2.80;;
69856;SDS011;57147;53.582;10.112;2023-05-10T06:45:42;5.63;;;2.88;;
69856;SDS011;57147;53.582;10.112;2023-05-10T06:50:45;5.30;;;2.80;;
69856;SDS011;57147;53.582;10.112;2023-05-10T06:55:46;4.70;;;3.40;;
69856;SDS011;57147;53.582;10.112;2023-05-10T07:00:46;4.47;;;2.92;;
69856;SDS011;57147;53.582;10.112;2023-05-10T07:05:49;4.28;;;3.28;;
69856;SDS011;57147;53.582;10.112;2023-05-10T07:10:50;4.20;;;2.83;;
69856;SDS011;57147;53.582;10.112;2023-05-10T07:15:51;3.53;;;2.90;;
69856;SDS011;57147;53.582;10.112;2023-05-10T07:20:54;3.88;;;2.67;;
69856;SDS011;57147;53.582;10.112;2023-05-10T07:25:54;4.25;;;2.47;;
69856;SDS011;57147;53.582;10.112;2023-05-10T07:30:55;3.83;;;2.53;;
69856;SDS011;57147;53.582;10.112;2023-05-10T07:35:59;4.68;;;2.53;;
69856;SDS011;57147;53.582;10.112;2023-05-10T07:41:01;4.10;;;2.15;;
69856;SDS011;57147;53.582;10.112;2023-05-10T07:46:01;4.25;;;2.53;;
69856;SDS011;57147;53.582;10.112;2023-05-10T07:51:05;3.15;;;1.83;;
69856;SDS011;57147;53.582;10.112;2023-05-10T07:56:20;3.63;;;2.80;;
69856;SDS011;57147;53.582;10.112;2023-05-10T08:01:21;4.65;;;2.58;;
69856;SDS011;57147;53.582;10.112;2023-05-10T08:06:25;6.70;;;3.38;;
69856;SDS011;57147;53.582;10.112;2023-05-10T08:11:26;4.28;;;2.50;;
69856;SDS011;57147;53.582;10.112;2023-05-10T08:16:28;7.57;;;3.55;;
69856;SDS011;57147;53.582;10.112;2023-05-10T08:21:32;3.50;;;2.70;;
69856;SDS011;57147;53.582;10.112;2023-05-10T08:26:33;8.05;;;5.28;;
69856;SDS011;57147;53.582;10.112;2023-05-10T08:31:33;6.05;;;3.50;;
69856;SDS011;57147;53.582;10.112;2023-05-10T08:36:37;8.48;;;4.88;;
69856;SDS011;57147;53.582;10.112;2023-05-10T08:41:37;4.85;;;3.60;;
69856;SDS011;57147;53.582;10.112;2023-05-10T08:46:40;6.80;;;4.18;;
69856;SDS011;57147;53.582;10.112;2023-05-10T08:51:47;4.97;;;3.17;;
69856;SDS011;57147;53.582;10.112;2023-05-10T08:56:51;5.93;;;3.38;;
69856;SDS011;57147;53.582;10.112;2023-05-10T09:01:52;4.57;;;2.53;;
69856;SDS011;57147;53.582;10.112;2023-05-10T09:06:58;5.18;;;3.78;;
69856;SDS011;57147;53.582;10.112;2023-05-10T09:11:59;4.88;;;3.53;;
69856;SDS011;57147;53.582;10.112;2023-05-10T09:17:00;5.60;;;3.20;;
69856;SDS011;57147;53.582;10.112;2023-05-10T09:22:04;7.63;;;3.63;;
69856;SDS011;57147;53.582;10.112;2023-05-10T09:27:05;3.97;;;2.70;;
69856;SDS011;57147;53.582;10.112;2023-05-10T09:32:05;5.13;;;2.85;;
69856;SDS011;57147;53.582;10.112;2023-05-10T09:37:08;4.88;;;3.20;;
69856;SDS011;57147;53.582;10.112;2023-05-10T09:42:09;6.55;;;3.38;;
69856;SDS011;57147;53.582;10.112;2023-05-10T09:47:10;8.07;;;4.65;;
69856;SDS011;57147;53.582;10.112;2023-05-10T09:52:19;4.93;;;3.35;;
69856;SDS011;57147;53.582;10.112;2023-05-10T09:57:20;4.82;;;3.72;;
69856;SDS011;57147;53.582;10.112;2023-05-10T10:02:21;5.80;;;3.45;;
69856;SDS011;57147;53.582;10.112;2023-05-10T10:07:31;5.63;;;3.95;;
69856;SDS011;57147;53.582;10.112;2023-05-10T10:12:32;5.72;;;4.15;;
69856;SDS011;57147;53.582;10.112;2023-05-10T10:22:39;6.70;;;5.50;;
69856;SDS011;57147;53.582;10.112;2023-05-10T10:27:42;10.75;;;7.72;;
69856;SDS011;57147;53.582;10.112;2023-05-10T10:32:54;9.90;;;7.10;;
69856;SDS011;57147;53.582;10.112;2023-05-10T10:38:10;14.02;;;8.27;;
69856;SDS011;57147;53.582;10.112;2023-05-10T10:43:22;12.25;;;8.25;;
69856;SDS011;57147;53.582;10.112;2023-05-10T10:48:24;14.10;;;9.18;;
69856;SDS011;57147;53.582;10.112;2023-05-10T10:53:28;11.13;;;8.23;;
69856;SDS011;57147;53.582;10.112;2023-05-10T10:58:29;9.75;;;7.40;;
69856;SDS011;57147;53.582;10.112;2023-05-10T11:03:31;10.80;;;8.02;;
69856;SDS011;57147;53.582;10.112;2023-05-10T11:08:34;10.55;;;8.02;;
69856;SDS011;57147;53.582;10.112;2023-05-10T11:13:42;13.75;;;9.52;;
69856;SDS011;57147;53.582;10.112;2023-05-10T11:18:53;17.05;;;12.57;;
69856;SDS011;57147;53.582;10.112;2023-05-10T11:24:00;8.38;;;6.38;;
69856;SDS011;57147;53.582;10.112;2023-05-10T11:29:01;11.10;;;8.43;;
69856;SDS011;57147;53.582;10.112;2023-05-10T11:34:03;14.73;;;11.50;;
69856;SDS011;57147;53.582;10.112;2023-05-10T11:39:06;13.77;;;10.52;;
69856;SDS011;57147;53.582;10.112;2023-05-10T11:44:08;11.15;;;8.90;;
69856;SDS011;57147;53.582;10.112;2023-05-10T11:49:10;11.65;;;7.82;;
69856;SDS011;57147;53.582;10.112;2023-05-10T11:54:14;10.90;;;8.32;;
69856;SDS011;57147;53.582;10.112;2023-05-10T11:59:14;11.05;;;8.27;;
69856;SDS011;57147;53.582;10.112;2023-05-10T12:04:15;12.77;;;9.35;;
69856;SDS011;57147;53.582;10.112;2023-05-10T12:09:18;10.52;;;9.40;;
69856;SDS011;57147;53.582;10.112;2023-05-10T12:14:19;10.15;;;8.82;;
69856;SDS011;57147;53.582;10.112;2023-05-10T12:19:21;12.25;;;9.60;;
69856;SDS011;57147;53.582;10.112;2023-05-10T12:24:24;12.10;;;8.88;;
69856;SDS011;57147;53.582;10.112;2023-05-10T12:29:25;11.40;;;8.35;;
69856;SDS011;57147;53.582;10.112;2023-05-10T12:34:26;11.05;;;9.65;;
69856;SDS011;57147;53.582;10.112;2023-05-10T12:39:43;10.25;;;9.13;;
69856;SDS011;57147;53.582;10.112;2023-05-10T12:44:44;13.05;;;7.95;;
69856;SDS011;57147;53.582;10.112;2023-05-10T12:49:44;11.77;;;8.85;;
69856;SDS011;57147;53.582;10.112;2023-05-10T12:54:48;11.70;;;9.27;;
69856;SDS011;57147;53.582;10.112;2023-05-10T12:59:48;11.73;;;8.93;;
69856;SDS011;57147;53.582;10.112;2023-05-10T13:04:49;10.68;;;8.93;;
69856;SDS011;57147;53.582;10.112;2023-05-10T13:09:52;9.90;;;8.55;;
69856;SDS011;57147;53.582;10.112;2023-05-10T13:15:00;11.35;;;9.23;;
69856;SDS011;57147;53.582;10.112;2023-05-10T13:20:00;8.98;;;8.07;;
69856;SDS011;57147;53.582;10.112;2023-05-10T13:25:04;9.00;;;7.50;;
69856;SDS011;57147;53.582;10.112;2023-05-10T13:30:06;8.48;;;7.57;;
69856;SDS011;57147;53.582;10.112;2023-05-10T13:35:09;7.70;;;6.35;;
69856;SDS011;57147;53.582;10.112;2023-05-10T13:40:12;8.38;;;7.53;;
69856;SDS011;57147;53.582;10.112;2023-05-10T13:45:13;6.60;;;5.82;;
69856;SDS011;57147;53.582;10.112;2023-05-10T13:50:13;6.78;;;5.15;;
69856;SDS011;57147;53.582;10.112;2023-05-10T13:55:17;6.32;;;4.43;;
69856;SDS011;57147;53.582;10.112;2023-05-10T14:00:18;6.50;;;4.30;;
69856;SDS011;57147;53.582;10.112;2023-05-10T14:05:19;4.82;;;4.15;;
69856;SDS011;57147;53.582;10.112;2023-05-10T14:10:22;3.67;;;3.30;;
69856;SDS011;57147;53.582;10.112;2023-05-10T14:15:23;3.85;;;3.08;;
69856;SDS011;57147;53.582;10.112;2023-05-10T14:20:23;5.30;;;3.42;;
69856;SDS011;57147;53.582;10.112;2023-05-10T14:25:27;4.82;;;3.55;;
69856;SDS011;57147;53.582;10.112;2023-05-10T14:30:27;4.43;;;3.20;;
69856;SDS011;57147;53.582;10.112;2023-05-10T14:35:28;9.40;;;5.55;;
69856;SDS011;57147;53.582;10.112;2023-05-10T14:40:31;5.25;;;3.47;;
69856;SDS011;57147;53.582;10.112;2023-05-10T14:45:32;3.55;;;2.45;;
69856;SDS011;57147;53.582;10.112;2023-05-10T14:50:32;4.90;;;2.95;;
69856;SDS011;57147;53.582;10.112;2023-05-10T14:55:35;4.75;;;3.58;;
69856;SDS011;57147;53.582;10.112;2023-05-10T15:00:36;4.32;;;3.40;;
69856;SDS011;57147;53.582;10.112;2023-05-10T15:05:39;5.60;;;3.05;;
69856;SDS011;57147;53.582;10.112;2023-05-10T15:10:43;5.90;;;4.20;;
69856;SDS011;57147;53.582;10.112;2023-05-10T15:15:43;4.07;;;3.45;;
69856;SDS011;57147;53.582;10.112;2023-05-10T15:20:44;4.40;;;3.45;;
69856;SDS011;57147;53.582;10.112;2023-05-10T15:25:47;3.63;;;2.70;;
69856;SDS011;57147;53.582;10.112;2023-05-10T15:30:48;4.25;;;3.08;;
69856;SDS011;57147;53.582;10.112;2023-05-10T15:35:48;4.30;;;3.35;;
69856;SDS011;57147;53.582;10.112;2023-05-10T15:40:52;5.75;;;4.20;;
69856;SDS011;57147;53.582;10.112;2023-05-10T15:45:56;5.72;;;4.35;;
69856;SDS011;57147;53.582;10.112;2023-05-10T15:50:57;6.18;;;3.80;;
69856;SDS011;57147;53.582;10.112;2023-05-10T15:56:00;4.35;;;3.47;;
69856;SDS011;57147;53.582;10.112;2023-05-10T16:01:00;5.68;;;3.72;;
69856;SDS011;57147;53.582;10.112;2023-05-10T16:06:01;5.25;;;3.30;;
69856;SDS011;57147;53.582;10.112;2023-05-10T16:11:05;4.57;;;3.25;;
69856;SDS011;57147;53.582;10.112;2023-05-10T16:16:06;7.60;;;5.75;;
69856;SDS011;57147;53.582;10.112;2023-05-10T16:21:07;5.70;;;4.18;;
69856;SDS011;57147;53.582;10.112;2023-05-10T16:26:10;8.00;;;6.43;;
69856;SDS011;57147;53.582;10.112;2023-05-10T16:31:11;6.53;;;5.32;;
69856;SDS011;57147;53.582;10.112;2023-05-10T16:36:12;7.82;;;7.03;;
69856;SDS011;57147;53.582;10.112;2023-05-10T16:41:15;10.10;;;8.45;;
69856;SDS011;57147;53.582;10.112;2023-05-10T16:46:16;15.40;;;11.13;;
69856;SDS011;57147;53.582;10.112;2023-05-10T16:51:16;11.73;;;8.13;;
69856;SDS011;57147;53.582;10.112;2023-05-10T16:56:19;12.75;;;8.95;;
69856;SDS011;57147;53.582;10.112;2023-05-10T17:01:20;11.07;;;6.75;;
69856;SDS011;57147;53.582;10.112;2023-05-10T17:06:20;9.15;;;7.40;;
69856;SDS011;57147;53.582;10.112;2023-05-10T17:11:24;8.63;;;6.18;;
69856;SDS011;57147;53.582;10.112;2023-05-10T17:16:24;9.73;;;6.88;;
69856;SDS011;57147;53.582;10.112;2023-05-10T17:21:25;7.25;;;5.75;;
69856;SDS011;57147;53.582;10.112;2023-05-10T17:26:28;9.38;;;6.80;;
69856;SDS011;57147;53.582;10.112;2023-05-10T17:31:29;7.80;;;5.75;;
69856;SDS011;57147;53.582;10.112;2023-05-10T17:36:29;8.27;;;5.28;;
69856;SDS011;57147;53.582;10.112;2023-05-10T17:41:33;7.85;;;5.35;;
69856;SDS011;57147;53.582;10.112;2023-05-10T17:46:33;7.70;;;5.28;;
69856;SDS011;57147;53.582;10.112;2023-05-10T17:51:34;5.18;;;4.25;;
69856;SDS011;57147;53.582;10.112;2023-05-10T17:56:37;7.75;;;4.47;;
69856;SDS011;57147;53.582;10.112;2023-05-10T18:01:38;5.93;;;4.25;;
69856;SDS011;57147;53.582;10.112;2023-05-10T18:06:38;5.55;;;4.32;;
69856;SDS011;57147;53.582;10.112;2023-05-10T18:11:41;7.03;;;5.25;;
69856;SDS011;57147;53.582;10.112;2023-05-10T18:16:42;6.35;;;5.45;;
69856;SDS011;57147;53.582;10.112;2023-05-10T18:21:43;5.82;;;4.90;;
69856;SDS011;57147;53.582;10.112;2023-05-10T18:26:46;5.78;;;5.13;;
69856;SDS011;57147;53.582;10.112;2023-05-10T18:31:47;7.20;;;6.03;;
69856;SDS011;57147;53.582;10.112;2023-05-10T18:36:47;8.15;;;7.05;;
69856;SDS011;57147;53.582;10.112;2023-05-10T18:41:51;6.97;;;5.80;;
69856;SDS011;57147;53.582;10.112;2023-05-10T18:46:51;7.65;;;5.57;;
69856;SDS011;57147;53.582;10.112;2023-05-10T18:51:52;7.47;;;5.75;;
69856;SDS011;57147;53.582;10.112;2023-05-10T18:56:55;7.53;;;5.63;;
69856;SDS011;57147;53.582;10.112;2023-05-10T19:01:56;8.05;;;6.28;;
69856;SDS011;57147;53.582;10.112;2023-05-10T19:06:56;9.13;;;7.03;;
69856;SDS011;57147;53.582;10.112;2023-05-10T19:12:00;11.40;;;6.53;;
69856;SDS011;57147;53.582;10.112;2023-05-10T19:17:00;7.90;;;5.55;;
69856;SDS011;57147;53.582;10.112;2023-05-10T19:22:01;8.10;;;5.38;;
69856;SDS011;57147;53.582;10.112;2023-05-10T19:27:04;7.35;;;5.15;;
69856;SDS011;57147;53.582;10.112;2023-05-10T19:32:04;7.30;;;5.30;;
69856;SDS011;57147;53.582;10.112;2023-05-10T19:37:05;7.70;;;5.53;;
69856;SDS011;57147;53.582;10.112;2023-05-10T19:42:08;5.70;;;4.53;;
69856;SDS011;57147;53.582;10.112;2023-05-10T19:47:09;5.22;;;3.63;;
69856;SDS011;57147;53.582;10.112;2023-05-10T19:52:10;4.50;;;3.60;;
69856;SDS011;57147;53.582;10.112;2023-05-10T19:57:14;4.65;;;3.58;;
69856;SDS011;57147;53.582;10.112;2023-05-10T20:02:14;6.78;;;5.38;;
69856;SDS011;57147;53.582;10.112;2023-05-10T20:07:15;5.50;;;4.57;;
69856;SDS011;57147;53.582;10.112;2023-05-10T20:12:18;5.47;;;4.13;;
69856;SDS011;57147;53.582;10.112;2023-05-10T20:17:19;5.05;;;4.43;;
69856;SDS011;57147;53.582;10.112;2023-05-10T20:22:19;6.85;;;5.88;;
69856;SDS011;57147;53.582;10.112;2023-05-10T20:27:23;6.97;;;6.32;;
69856;SDS011;57147;53.582;10.112;2023-05-10T20:32:23;8.05;;;7.35;;
69856;SDS011;57147;53.582;10.112;2023-05-10T20:37:24;8.75;;;7.93;;
69856;SDS011;57147;53.582;10.112;2023-05-10T20:42:27;7.68;;;6.97;;
69856;SDS011;57147;53.582;10.112;2023-05-10T20:47:28;9.75;;;8.85;;
69856;SDS011;57147;53.582;10.112;2023-05-10T20:52:29;9.50;;;7.95;;
69856;SDS011;57147;53.582;10.112;2023-05-10T20:57:32;10.60;;;9.55;;
69856;SDS011;57147;53.582;10.112;2023-05-10T21:02:32;10.88;;;9.73;;
69856;SDS011;57147;53.582;10.112;2023-05-10T21:07:33;11.40;;;9.63;;
69856;SDS011;57147;53.582;10.112;2023-05-10T21:12:36;11.20;;;8.95;;
69856;SDS011;57147;53.582;10.112;2023-05-10T21:17:37;10.02;;;8.45;;
69856;SDS011;57147;53.582;10.112;2023-05-10T21:22:37;11.80;;;10.07;;
69856;SDS011;57147;53.582;10.112;2023-05-10T21:27:41;12.68;;;9.68;;
69856;SDS011;57147;53.582;10.112;2023-05-10T21:32:41;14.52;;;10.23;;
69856;SDS011;57147;53.582;10.112;2023-05-10T21:37:42;16.55;;;12.85;;
69856;SDS011;57147;53.582;10.112;2023-05-10T21:42:45;19.40;;;13.63;;
69856;SDS011;57147;53.582;10.112;2023-05-10T21:47:46;16.38;;;11.90;;
69856;SDS011;57147;53.582;10.112;2023-05-10T21:52:47;16.20;;;11.70;;
69856;SDS011;57147;53.582;10.112;2023-05-10T21:57:50;14.98;;;10.85;;
69856;SDS011;57147;53.582;10.112;2023-05-10T22:02:51;15.18;;;10.32;;
69856;SDS011;57147;53.582;10.112;2023-05-10T22:07:51;17.65;;;11.30;;
69856;SDS011;57147;53.582;10.112;2023-05-10T22:12:54;17.27;;;11.27;;
69856;SDS011;57147;53.582;10.112;2023-05-10T22:17:55;16.38;;;10.77;;
69856;SDS011;57147;53.582;10.112;2023-05-10T22:22:55;15.10;;;9.80;;
69856;SDS011;57147;53.582;10.112;2023-05-10T22:27:59;13.90;;;10.05;;
69856;SDS011;57147;53.582;10.112;2023-05-10T22:32:59;13.80;;;9.20;;
69856;SDS011;57147;53.582;10.112;2023-05-10T22:38:00;15.30;;;8.90;;
69856;SDS011;57147;53.582;10.112;2023-05-10T22:43:03;13.50;;;8.93;;
69856;SDS011;57147;53.582;10.112;2023-05-10T22:48:04;16.17;;;10.40;;
69856;SDS011;57147;53.582;10.112;2023-05-10T22:53:05;17.85;;;10.82;;
69856;SDS011;57147;53.582;10.112;2023-05-10T22:58:08;18.00;;;10.82;;
69856;SDS011;57147;53.582;10.112;2023-05-10T23:03:08;16.95;;;10.48;;
69856;SDS011;57147;53.582;10.112;2023-05-10T23:08:09;17.52;;;10.77;;
69856;SDS011;57147;53.582;10.112;2023-05-10T23:13:12;16.98;;;10.40;;
69856;SDS011;57147;53.582;10.112;2023-05-10T23:18:13;16.42;;;9.80;;
69856;SDS011;57147;53.582;10.112;2023-05-10T23:23:13;18.83;;;11.45;;
69856;SDS011;57147;53.582;10.112;2023-05-10T23:28:17;18.52;;;10.30;;
69856;SDS011;57147;53.582;10.112;2023-05-10T23:33:17;15.45;;;9.13;;
69856;SDS011;57147;53.582;10.112;2023-05-10T23:38:18;18.88;;;11.65;;
69856;SDS011;57147;53.582;10.112;2023-05-10T23:43:21;19.00;;;10.55;;
69856;SDS011;57147;53.582;10.112;2023-05-10T23:48:22;16.30;;;10.32;;
69856;SDS011;57147;53.582;10.112;2023-05-10T23:53:22;18.13;;;11.10;;
69856;SDS011;57147;53.582;10.112;2023-05-10T23:58:26;21.23;;;12.85;;
